Tapiramuta, Brazil
Current Conditions -  °F | °C
As of 2:00 PM on Tuesday 27 Jan 2015 (Local Time) from SBPL Reporting Station
Scattered Clouds Scattered Clouds  
Wind Chill: 93°   Ceiling: Unl
Heat Index: 94°   Visibility: 6mi
Dew Point: 63°   Wind: 9mph
Humidity: 36%   Direction: 100°E
Pressure: 29.91"   Gusts: NA
Location:  11.85°S, 40.79°W
Report Text: SBPL 271700Z 10008KT 9999 SCT040 34/17 Q1013
Loading
Personal Weather Stations






























Interactive Weather Map New forecast layout! Learn more

10-Day Weather Forecast

Advertisements
Track Severe Weather on mobile